Alliance Fairfax — WLMQ — position and weather

sailwx.info

Track history (hours):
 
Tides and Currents Weather Stations Pressure Air Temp Water Temp Dewpoint Dewpoint Depression Visibility Wind Speed Wind Dir Waves Ship Positions

Alliance Fairfax

Owner: Maersk Line, Limited, Norfolk, VA. More information available from US FCC via Universal Licensing System and Coast Guard Vessel Documentation Center.

Last reported at 2017-Dec-15 01:00 UTC. Time now 2017-Dec-15 18:11 UTC.
Position N 27°02' W 090°26'.

Length 199 m; draft 8.7 m.

Type: Cargo ship. MMSI: 366771000.

Date/timePositionNaut miles runAvg speedWind from/ knotsBaromVisibWave heightAir tempDewpointWater temp
2017-Dec-15 01:00N 27°02' W 090°26'815.3
2017-Dec-15 00:30N 27°04' W 090°34'10015.4
2017-Dec-14 18:00N 27°42' W 092°18'14614.6 230 / 101014.910.8 24.022.5
2017-Dec-14 08:02N 29°43' W 093°51'012.2
2017-Dec-14 08:00N 29°43' W 093°51'10 3.1
2017-Dec-14 04:53N 29°52' W 093°56'1 0.0
2017-Dec-13 11:40N 29°52' W 093°56'0 0.9
2017-Dec-13 11:25N 29°52' W 093°56'2 4.9
2017-Dec-13 11:01N 29°50' W 093°57'8 7.6
2017-Dec-13 09:56N 29°44' W 093°52'  
2017-Dec-10 18:00N 24°54' W 096°00'15112.5 330 / 141028.610.8 20.010.2
2017-Dec-10 06:00N 22°48' W 097°30'57 2.4 260 / 151028.6 5.4 16.9 7.8
2017-Dec-09 06:00N 21°54' W 097°12'34 2.9 320 / 201027.6 5.4 10.2 8.1
2017-Dec-08 18:00N 21°24' W 096°54'9312776.0 330 / 541021.9 2.2 12.810.1
2017-Dec-08 06:00N 20°54' E 096°42'9426732.8 320 / 451017.3 2.2 16.814.2
2017-Dec-07 17:08N 19°12' W 096°05'1 9.2
2017-Dec-07 17:00N 19°12' W 096°06'2 4.8
2017-Dec-07 16:30N 19°13' W 096°08'0 0.0
2017-Dec-07 16:00N 19°13' W 096°08'0 0.0
2017-Dec-07 15:30N 19°13' W 096°08'0 0.0
2017-Dec-07 15:00N 19°13' W 096°08'0 0.0
2017-Dec-07 14:30N 19°13' W 096°08'0 0.0
2017-Dec-07 14:00N 19°13' W 096°08'0 0.0
2017-Dec-07 13:30N 19°13' W 096°08'0 0.0
2017-Dec-07 12:59N 19°13' W 096°08'0 0.0
2017-Dec-07 12:30N 19°13' W 096°08'0 0.0
2017-Dec-07 12:00N 19°13' W 096°08'0 0.0
2017-Dec-07 11:30N 19°13' W 096°08'0 0.0
2017-Dec-07 10:12N 19°13' W 096°08'0 0.0
2017-Dec-07 10:00N 19°13' W 096°08'0 0.0
2017-Dec-07 09:30N 19°13' W 096°08'0 0.0
2017-Dec-07 08:54N 19°13' W 096°08'0 0.0
2017-Dec-07 08:24N 19°13' W 096°08'0 0.0
2017-Dec-07 08:00N 19°13' W 096°08'0 0.0
2017-Dec-07 07:30N 19°13' W 096°08'0 0.0
2017-Dec-07 07:00N 19°13' W 096°08'0 0.0
2017-Dec-07 06:24N 19°13' W 096°08'0 0.0
2017-Dec-07 06:00N 19°13' W 096°08'0 0.0
2017-Dec-07 05:30N 19°13' W 096°08'0 0.0
2017-Dec-07 04:48N 19°13' W 096°08'0 0.0
2017-Dec-07 04:12N 19°13' W 096°08'0 0.0
2017-Dec-07 03:54N 19°13' W 096°08'0 0.0
2017-Dec-07 03:30N 19°13' W 096°08'0 0.0
2017-Dec-07 02:42N 19°13' W 096°08'0 0.0
2017-Dec-07 02:24N 19°13' W 096°08'0 0.0
2017-Dec-07 02:00N 19°13' W 096°08'0 0.0
2017-Dec-07 01:24N 19°13' W 096°08'0 0.0
2017-Dec-07 01:00N 19°13' W 096°08'0 0.0
2017-Dec-07 00:30N 19°13' W 096°08'0 0.0
2017-Dec-06 22:42N 19°13' W 096°08'0 0.0
2017-Dec-06 22:12N 19°13' W 096°08'0 0.0
2017-Dec-06 22:00N 19°13' W 096°08'0 0.0
2017-Dec-06 21:30N 19°13' W 096°08'0 0.0
2017-Dec-06 21:00N 19°13' W 096°08'  
Track history (hours):
 
Tides and Currents Weather Stations Pressure Air Temp Water Temp Dewpoint Dewpoint Depression Visibility Wind Speed Wind Dir Waves Ship Positions

Alliance Fairfax

Owner: Maersk Line, Limited, Norfolk, VA. More information available from US FCC via Universal Licensing System and Coast Guard Vessel Documentation Center.

Last reported at 2017-Dec-15 01:00 UTC. Time now 2017-Dec-15 18:11 UTC.
Position N 27°02' W 090°26'.

Length 199 m; draft 8.7 m.

Type: Cargo ship. MMSI: 366771000.

Date/timePositionNaut miles runAvg speedWind from/ knotsBaromVisibWave heightAir tempDewpointWater temp
2017-Dec-15 01:00N 27°02' W 090°26'815.3
2017-Dec-15 00:30N 27°04' W 090°34'10015.4
2017-Dec-14 18:00N 27°42' W 092°18'14614.6 230 / 101014.910.8 24.022.5
2017-Dec-14 08:02N 29°43' W 093°51'012.2
2017-Dec-14 08:00N 29°43' W 093°51'10 3.1
2017-Dec-14 04:53N 29°52' W 093°56'1 0.0
2017-Dec-13 11:40N 29°52' W 093°56'0 0.9
2017-Dec-13 11:25N 29°52' W 093°56'2 4.9
2017-Dec-13 11:01N 29°50' W 093°57'8 7.6
2017-Dec-13 09:56N 29°44' W 093°52'  
2017-Dec-10 18:00N 24°54' W 096°00'15112.5 330 / 141028.610.8 20.010.2
2017-Dec-10 06:00N 22°48' W 097°30'57 2.4 260 / 151028.6 5.4 16.9 7.8
2017-Dec-09 06:00N 21°54' W 097°12'34 2.9 320 / 201027.6 5.4 10.2 8.1
2017-Dec-08 18:00N 21°24' W 096°54'9312776.0 330 / 541021.9 2.2 12.810.1
2017-Dec-08 06:00N 20°54' E 096°42'9426732.8 320 / 451017.3 2.2 16.814.2
2017-Dec-07 17:08N 19°12' W 096°05'1 9.2
2017-Dec-07 17:00N 19°12' W 096°06'2 4.8
2017-Dec-07 16:30N 19°13' W 096°08'0 0.0
2017-Dec-07 16:00N 19°13' W 096°08'0 0.0
2017-Dec-07 15:30N 19°13' W 096°08'0 0.0
2017-Dec-07 15:00N 19°13' W 096°08'0 0.0
2017-Dec-07 14:30N 19°13' W 096°08'0 0.0
2017-Dec-07 14:00N 19°13' W 096°08'0 0.0
2017-Dec-07 13:30N 19°13' W 096°08'0 0.0
2017-Dec-07 12:59N 19°13' W 096°08'0 0.0
2017-Dec-07 12:30N 19°13' W 096°08'0 0.0
2017-Dec-07 12:00N 19°13' W 096°08'0 0.0
2017-Dec-07 11:30N 19°13' W 096°08'0 0.0
2017-Dec-07 10:12N 19°13' W 096°08'0 0.0
2017-Dec-07 10:00N 19°13' W 096°08'0 0.0
2017-Dec-07 09:30N 19°13' W 096°08'0 0.0
2017-Dec-07 08:54N 19°13' W 096°08'0 0.0
2017-Dec-07 08:24N 19°13' W 096°08'0 0.0
2017-Dec-07 08:00N 19°13' W 096°08'0 0.0
2017-Dec-07 07:30N 19°13' W 096°08'0 0.0
2017-Dec-07 07:00N 19°13' W 096°08'0 0.0
2017-Dec-07 06:24N 19°13' W 096°08'0 0.0
2017-Dec-07 06:00N 19°13' W 096°08'0 0.0
2017-Dec-07 05:30N 19°13' W 096°08'0 0.0
2017-Dec-07 04:48N 19°13' W 096°08'0 0.0
2017-Dec-07 04:12N 19°13' W 096°08'0 0.0
2017-Dec-07 03:54N 19°13' W 096°08'0 0.0
2017-Dec-07 03:30N 19°13' W 096°08'0 0.0
2017-Dec-07 02:42N 19°13' W 096°08'0 0.0
2017-Dec-07 02:24N 19°13' W 096°08'0 0.0
2017-Dec-07 02:00N 19°13' W 096°08'0 0.0
2017-Dec-07 01:24N 19°13' W 096°08'0 0.0
2017-Dec-07 01:00N 19°13' W 096°08'0 0.0
2017-Dec-07 00:30N 19°13' W 096°08'0 0.0
2017-Dec-06 22:42N 19°13' W 096°08'0 0.0
2017-Dec-06 22:12N 19°13' W 096°08'0 0.0
2017-Dec-06 22:00N 19°13' W 096°08'0 0.0
2017-Dec-06 21:30N 19°13' W 096°08'0 0.0
2017-Dec-06 21:00N 19°13' W 096°08'  

Dump ship's entire track history